createdAt,value
2023-10-24T00:00:32.458Z,3.6111111111111427
2023-10-24T00:01:32.541Z,3.6111111111111427
2023-10-24T00:02:32.537Z,3.500000000000057
2023-10-24T00:03:32.519Z,3.500000000000057
2023-10-24T00:04:32.433Z,3.500000000000057
2023-10-24T00:05:32.450Z,3.500000000000057
2023-10-24T00:06:32.461Z,3.388888888888971
2023-10-24T00:07:32.486Z,3.388888888888971
2023-10-24T00:08:32.445Z,3.388888888888971
2023-10-24T00:09:32.459Z,3.388888888888971
2023-10-24T00:10:32.579Z,3.388888888888971
2023-10-24T00:11:32.467Z,3.388888888888971
2023-10-24T00:12:32.453Z,3.388888888888971
2023-10-24T00:13:32.788Z,3.388888888888971
2023-10-24T00:14:32.604Z,3.388888888888971
2023-10-24T00:15:32.442Z,3.388888888888971
2023-10-24T00:16:32.608Z,3.2777777777778283
2023-10-24T00:17:32.479Z,3.2777777777778283
2023-10-24T00:18:32.581Z,3.2777777777778283
2023-10-24T00:19:32.492Z,3.2777777777778283
2023-10-24T00:20:32.576Z,3.2777777777778283
2023-10-24T00:21:32.428Z,3.2777777777778283
2023-10-24T00:22:32.642Z,3.2777777777778283
2023-10-24T00:23:32.740Z,3.2777777777778283
2023-10-24T00:24:32.589Z,3.2777777777778283
2023-10-24T00:25:32.655Z,3.2777777777778283
2023-10-24T00:26:32.584Z,3.2222222222222854
2023-10-24T00:27:32.595Z,3.2222222222222854
2023-10-24T00:28:32.762Z,3.2222222222222854
2023-10-24T00:29:32.639Z,3.2222222222222854
2023-10-24T00:30:32.615Z,3.2222222222222854
2023-10-24T00:31:32.681Z,3.2222222222222854
2023-10-24T00:32:32.700Z,3.2222222222222854
2023-10-24T00:33:33.098Z,3.2222222222222854
2023-10-24T00:34:32.733Z,3.2222222222222854
2023-10-24T00:35:32.606Z,3.2222222222222854
2023-10-24T00:36:32.646Z,3.2222222222222854
2023-10-24T00:37:32.593Z,3.2222222222222854
2023-10-24T00:38:32.586Z,3.2222222222222854
2023-10-24T00:39:32.636Z,3.2222222222222854
2023-10-24T00:40:32.640Z,3.2222222222222854
2023-10-24T00:41:32.540Z,3.2222222222222854
2023-10-24T00:42:32.587Z,3.2222222222222854
2023-10-24T00:43:32.769Z,3.2222222222222854
2023-10-24T00:44:32.584Z,3.2222222222222854
2023-10-24T00:45:32.541Z,3.2222222222222854
2023-10-24T00:46:32.627Z,3.2222222222222854
2023-10-24T00:47:32.578Z,3.2777777777778283
2023-10-24T00:48:32.543Z,3.2777777777778283
2023-10-24T00:49:32.594Z,3.2777777777778283
2023-10-24T00:50:32.982Z,3.2777777777778283
2023-10-24T00:51:32.452Z,3.2777777777778283
2023-10-24T00:52:32.634Z,3.2777777777778283
2023-10-24T00:53:32.439Z,3.2777777777778283
2023-10-24T00:54:32.462Z,3.2777777777778283
2023-10-24T00:55:32.655Z,3.2777777777778283
2023-10-24T00:56:32.451Z,3.2777777777778283
2023-10-24T00:57:32.532Z,3.2777777777778283
2023-10-24T00:58:32.719Z,3.2777777777778283
2023-10-24T00:59:32.588Z,3.2777777777778283
2023-10-24T01:00:32.604Z,3.2777777777778283
2023-10-24T01:01:32.602Z,3.2777777777778283
2023-10-24T01:02:32.772Z,3.2777777777778283
2023-10-24T01:03:32.696Z,3.2777777777778283
2023-10-24T01:04:32.599Z,3.388888888888971
2023-10-24T01:05:32.472Z,3.388888888888971
2023-10-24T01:06:32.439Z,3.388888888888971
2023-10-24T01:07:32.547Z,3.388888888888971
2023-10-24T01:08:32.483Z,3.388888888888971
2023-10-24T01:09:32.538Z,3.388888888888971
2023-10-24T01:10:32.595Z,3.388888888888971
2023-10-24T01:11:32.607Z,3.388888888888971
2023-10-24T01:12:32.464Z,3.500000000000057
2023-10-24T01:13:32.704Z,3.500000000000057
2023-10-24T01:14:32.576Z,3.500000000000057
2023-10-24T01:15:32.608Z,3.500000000000057
2023-10-24T01:16:32.529Z,3.500000000000057
2023-10-24T01:17:32.607Z,3.500000000000057
2023-10-24T01:18:32.595Z,3.500000000000057
2023-10-24T01:19:32.496Z,3.500000000000057
2023-10-24T01:20:32.566Z,3.500000000000057
2023-10-24T01:21:32.594Z,3.500000000000057
2023-10-24T01:22:32.510Z,3.6111111111111427
2023-10-24T01:23:33.410Z,3.6111111111111427
2023-10-24T01:24:32.489Z,3.6111111111111427
2023-10-24T01:25:32.548Z,3.6111111111111427
2023-10-24T01:26:32.620Z,3.6111111111111427
2023-10-24T01:27:32.513Z,3.6111111111111427
2023-10-24T01:28:32.475Z,3.6111111111111427
2023-10-24T01:29:32.444Z,3.6111111111111427
2023-10-24T01:30:32.455Z,3.7222222222222854
2023-10-24T01:31:32.623Z,3.7222222222222854
2023-10-24T01:32:32.676Z,3.7222222222222854
2023-10-24T01:33:32.490Z,3.7222222222222854
2023-10-24T01:34:32.531Z,3.7222222222222854
2023-10-24T01:35:32.472Z,3.7222222222222854
2023-10-24T01:36:32.613Z,3.7222222222222854
2023-10-24T01:37:32.620Z,3.7222222222222854
2023-10-24T01:38:32.566Z,3.7222222222222854
2023-10-24T01:39:32.605Z,3.7222222222222854
2023-10-24T01:40:32.654Z,3.7222222222222854
2023-10-24T01:41:32.485Z,3.7222222222222854
2023-10-24T01:42:32.435Z,3.7222222222222854
2023-10-24T01:43:32.463Z,3.7222222222222854
2023-10-24T01:44:32.437Z,3.7222222222222854
2023-10-24T01:45:32.449Z,3.7222222222222854
2023-10-24T01:46:32.624Z,3.7222222222222854
2023-10-24T01:47:32.514Z,3.7222222222222854
2023-10-24T01:48:32.616Z,3.7777777777778283
2023-10-24T01:49:32.568Z,3.7222222222222854
2023-10-24T01:50:32.536Z,3.7222222222222854
2023-10-24T01:51:32.568Z,3.7222222222222854
2023-10-24T01:52:32.511Z,3.7777777777778283
2023-10-24T01:53:32.597Z,3.7777777777778283
2023-10-24T01:54:32.436Z,3.7777777777778283
2023-10-24T01:55:32.486Z,3.7777777777778283
2023-10-24T01:56:32.540Z,3.7777777777778283
2023-10-24T01:57:32.601Z,3.7777777777778283
2023-10-24T01:58:32.493Z,3.7777777777778283
2023-10-24T01:59:32.456Z,3.7777777777778283
2023-10-24T02:00:32.438Z,3.7777777777778283
2023-10-24T02:01:32.539Z,3.7777777777778283
2023-10-24T02:02:32.617Z,3.7777777777778283
2023-10-24T02:03:32.688Z,3.7777777777778283
2023-10-24T02:04:32.608Z,3.7777777777778283
2023-10-24T02:05:32.419Z,3.7777777777778283
2023-10-24T02:06:32.455Z,3.7777777777778283
2023-10-24T02:07:32.513Z,3.7777777777778283
2023-10-24T02:08:32.515Z,3.7777777777778283
2023-10-24T02:09:32.696Z,3.7777777777778283
2023-10-24T02:10:32.449Z,3.7777777777778283
2023-10-24T02:11:32.430Z,3.7777777777778283
2023-10-24T02:12:32.600Z,3.7777777777778283
2023-10-24T02:13:32.609Z,3.7777777777778283
2023-10-24T02:14:32.564Z,3.888888888888914
2023-10-24T02:15:32.487Z,3.888888888888914
2023-10-24T02:16:32.455Z,3.888888888888914
2023-10-24T02:17:32.498Z,3.888888888888914
2023-10-24T02:18:32.575Z,3.888888888888914
2023-10-24T02:19:32.616Z,3.888888888888914
2023-10-24T02:20:32.554Z,3.888888888888914
2023-10-24T02:21:32.543Z,3.888888888888914
2023-10-24T02:22:32.474Z,3.888888888888914
2023-10-24T02:23:32.538Z,3.888888888888914
2023-10-24T02:24:32.426Z,3.888888888888914
2023-10-24T02:25:32.484Z,3.888888888888914
2023-10-24T02:26:32.560Z,3.888888888888914
2023-10-24T02:27:32.424Z,3.888888888888914
2023-10-24T02:28:32.604Z,3.888888888888914
2023-10-24T02:29:32.542Z,3.888888888888914
2023-10-24T02:30:32.561Z,3.888888888888914
2023-10-24T02:31:32.526Z,3.888888888888914
2023-10-24T02:32:32.624Z,3.888888888888914
2023-10-24T02:33:32.633Z,3.888888888888914
2023-10-24T02:34:32.605Z,3.888888888888914
2023-10-24T02:35:32.419Z,3.888888888888914
2023-10-24T02:36:32.423Z,3.888888888888914
2023-10-24T02:37:32.540Z,3.888888888888914
2023-10-24T02:38:32.453Z,3.888888888888914
2023-10-24T02:39:32.537Z,3.888888888888914
2023-10-24T02:40:32.594Z,3.888888888888914
2023-10-24T02:41:32.602Z,3.888888888888914
2023-10-24T02:42:32.485Z,3.888888888888914
2023-10-24T02:43:33.234Z,3.888888888888914
2023-10-24T02:44:32.510Z,3.888888888888914
2023-10-24T02:45:32.601Z,3.888888888888914
2023-10-24T02:46:32.623Z,3.888888888888914
2023-10-24T02:47:32.740Z,3.888888888888914
2023-10-24T02:48:32.444Z,3.888888888888914
2023-10-24T02:49:32.487Z,3.888888888888914
2023-10-24T02:50:32.422Z,4.000000000000057
2023-10-24T02:51:32.521Z,4.000000000000057
2023-10-24T02:52:32.523Z,4.000000000000057
2023-10-24T02:53:32.631Z,4.000000000000057
2023-10-24T02:54:32.592Z,4.000000000000057
2023-10-24T02:55:32.571Z,4.000000000000057
2023-10-24T02:56:32.534Z,4.000000000000057
2023-10-24T02:57:32.590Z,4.000000000000057
2023-10-24T02:58:32.544Z,4.000000000000057
2023-10-24T02:59:32.429Z,4.000000000000057
2023-10-24T03:00:32.418Z,4.000000000000057
2023-10-24T03:01:32.517Z,4.000000000000057
2023-10-24T03:02:32.461Z,4.000000000000057
2023-10-24T03:03:32.983Z,4.000000000000057
2023-10-24T03:04:32.454Z,4.000000000000057
2023-10-24T03:05:32.432Z,4.000000000000057
2023-10-24T03:06:32.412Z,4.000000000000057
2023-10-24T03:07:32.420Z,4.000000000000057
2023-10-24T03:08:32.468Z,4.000000000000057
2023-10-24T03:09:32.428Z,4.000000000000057
2023-10-24T03:10:32.390Z,4.000000000000057
2023-10-24T03:11:32.426Z,4.000000000000057
2023-10-24T03:12:32.434Z,4.000000000000057
2023-10-24T03:13:32.439Z,4.000000000000057
2023-10-24T03:14:32.416Z,4.000000000000057
2023-10-24T03:15:34.207Z,4.000000000000057
2023-10-24T03:16:32.488Z,4.000000000000057
2023-10-24T03:17:32.475Z,4.000000000000057
2023-10-24T03:18:32.422Z,4.000000000000057
2023-10-24T03:19:32.491Z,4.000000000000057
2023-10-24T03:20:32.426Z,4.111111111111143
2023-10-24T03:21:32.404Z,4.111111111111143
2023-10-24T03:22:32.477Z,4.111111111111143
2023-10-24T03:23:32.435Z,4.111111111111143
2023-10-24T03:24:32.426Z,4.000000000000057
2023-10-24T03:25:32.495Z,4.000000000000057
2023-10-24T03:26:32.431Z,4.000000000000057
2023-10-24T03:27:32.412Z,4.111111111111143
2023-10-24T03:28:32.517Z,4.111111111111143
2023-10-24T03:29:32.442Z,4.111111111111143
2023-10-24T03:30:32.456Z,4.111111111111143
2023-10-24T03:31:32.471Z,4.111111111111143
2023-10-24T03:32:32.507Z,4.111111111111143
2023-10-24T03:33:32.459Z,4.111111111111143
2023-10-24T03:34:32.491Z,4.111111111111143
2023-10-24T03:35:32.458Z,4.111111111111143
2023-10-24T03:36:32.425Z,4.111111111111143
2023-10-24T03:37:32.450Z,4.111111111111143
2023-10-24T03:38:32.542Z,4.111111111111143
2023-10-24T03:39:32.441Z,4.111111111111143
2023-10-24T03:40:32.475Z,4.111111111111143
2023-10-24T03:41:32.441Z,4.111111111111143
2023-10-24T03:42:32.412Z,4.111111111111143
2023-10-24T03:43:32.594Z,4.000000000000057
2023-10-24T03:44:32.432Z,4.000000000000057
2023-10-24T03:45:32.418Z,4.000000000000057
2023-10-24T03:46:32.606Z,4.000000000000057
2023-10-24T03:47:32.495Z,4.111111111111143
2023-10-24T03:48:32.444Z,4.111111111111143
2023-10-24T03:49:32.509Z,4.111111111111143
2023-10-24T03:50:32.424Z,4.111111111111143
2023-10-24T03:51:32.482Z,4.111111111111143
2023-10-24T03:52:32.546Z,4.111111111111143
2023-10-24T03:53:32.423Z,4.111111111111143
2023-10-24T03:54:32.438Z,4.111111111111143
2023-10-24T03:55:32.497Z,4.111111111111143
2023-10-24T03:56:32.441Z,4.111111111111143
2023-10-24T03:57:32.325Z,4.111111111111143
2023-10-24T03:58:32.523Z,4.111111111111143
2023-10-24T03:59:32.446Z,4.111111111111143
2023-10-24T04:00:32.634Z,4.111111111111143
2023-10-24T04:01:32.475Z,4.111111111111143
2023-10-24T04:02:32.519Z,4.111111111111143
2023-10-24T04:03:32.755Z,4.111111111111143
2023-10-24T04:04:32.687Z,4.111111111111143
2023-10-24T04:05:32.462Z,4.111111111111143
2023-10-24T04:06:32.463Z,4.111111111111143
2023-10-24T04:07:32.480Z,4.111111111111143
2023-10-24T04:08:32.457Z,4.111111111111143
2023-10-24T04:10:32.488Z,4.111111111111143
2023-10-24T04:11:32.436Z,4.222222222222285
2023-10-24T04:12:32.477Z,4.222222222222285
2023-10-24T04:13:32.685Z,4.222222222222285
2023-10-24T04:14:32.458Z,4.222222222222285
2023-10-24T04:15:32.441Z,4.222222222222285
2023-10-24T04:16:32.544Z,4.222222222222285
2023-10-24T04:17:32.650Z,4.222222222222285
2023-10-24T04:18:32.492Z,4.222222222222285
2023-10-24T04:19:32.598Z,4.222222222222285
2023-10-24T04:20:32.481Z,4.222222222222285
2023-10-24T04:21:32.458Z,4.222222222222285
2023-10-24T04:22:32.542Z,4.222222222222285
2023-10-24T04:23:32.927Z,4.222222222222285
2023-10-24T04:24:32.487Z,4.222222222222285
2023-10-24T04:25:32.487Z,4.111111111111143
2023-10-24T04:26:32.458Z,4.111111111111143
2023-10-24T04:27:32.439Z,4.111111111111143
2023-10-24T04:28:32.516Z,4.111111111111143
2023-10-24T04:29:32.571Z,4.111111111111143
2023-10-24T04:30:32.458Z,4.111111111111143
2023-10-24T04:31:32.614Z,4.222222222222285
2023-10-24T04:32:32.610Z,4.111111111111143
2023-10-24T04:33:32.457Z,4.111111111111143
2023-10-24T04:34:32.593Z,4.111111111111143
2023-10-24T04:35:32.462Z,4.111111111111143
2023-10-24T04:36:32.436Z,4.222222222222285
2023-10-24T04:37:32.510Z,4.222222222222285
2023-10-24T04:38:32.452Z,4.222222222222285
2023-10-24T04:39:32.447Z,4.222222222222285
2023-10-24T04:40:32.501Z,4.222222222222285
2023-10-24T04:41:32.461Z,4.222222222222285
2023-10-24T04:42:32.455Z,4.222222222222285
2023-10-24T04:43:33.606Z,4.222222222222285
2023-10-24T04:44:32.472Z,4.222222222222285
2023-10-24T04:45:32.458Z,4.222222222222285
2023-10-24T04:46:32.494Z,4.222222222222285
2023-10-24T04:47:32.526Z,4.222222222222285
2023-10-24T04:48:32.452Z,4.222222222222285
2023-10-24T04:49:32.491Z,4.222222222222285
2023-10-24T04:50:32.473Z,4.277777777777828
2023-10-24T04:51:32.454Z,4.277777777777828
2023-10-24T04:52:32.514Z,4.277777777777828
2023-10-24T04:53:32.501Z,4.277777777777828
2023-10-24T04:54:32.501Z,4.277777777777828
2023-10-24T04:55:32.441Z,4.277777777777828
2023-10-24T04:56:32.501Z,4.277777777777828
2023-10-24T04:57:32.429Z,4.277777777777828
2023-10-24T04:58:32.487Z,4.277777777777828
2023-10-24T04:59:32.445Z,4.277777777777828
2023-10-24T05:00:32.495Z,4.277777777777828
2023-10-24T05:01:32.676Z,4.277777777777828
2023-10-24T05:02:32.611Z,4.277777777777828
2023-10-24T05:03:32.496Z,4.277777777777828
2023-10-24T05:04:32.699Z,4.277777777777828
2023-10-24T05:05:32.430Z,4.388888888888914
2023-10-24T05:06:32.436Z,4.388888888888914
2023-10-24T05:07:32.525Z,4.277777777777828
2023-10-24T05:08:32.487Z,4.277777777777828
2023-10-24T05:09:32.516Z,4.277777777777828
2023-10-24T05:10:32.522Z,4.277777777777828
2023-10-24T05:11:32.413Z,4.277777777777828
2023-10-24T05:12:32.437Z,4.277777777777828
2023-10-24T05:13:32.627Z,4.277777777777828
2023-10-24T05:14:32.418Z,4.277777777777828
2023-10-24T05:15:32.426Z,4.277777777777828
2023-10-24T05:16:32.511Z,4.277777777777828
2023-10-24T05:17:32.425Z,4.277777777777828
2023-10-24T05:18:32.405Z,4.277777777777828
2023-10-24T05:19:32.447Z,4.277777777777828
2023-10-24T05:20:32.503Z,4.277777777777828
2023-10-24T05:21:32.391Z,4.277777777777828
2023-10-24T05:22:32.451Z,4.277777777777828
2023-10-24T05:23:32.399Z,4.277777777777828
2023-10-24T05:24:32.412Z,4.222222222222285
2023-10-24T05:25:32.473Z,4.222222222222285
2023-10-24T05:26:32.414Z,4.222222222222285
2023-10-24T05:27:32.455Z,4.222222222222285
2023-10-24T05:28:32.465Z,4.222222222222285
2023-10-24T05:29:32.409Z,4.222222222222285
2023-10-24T05:30:32.384Z,4.222222222222285
2023-10-24T05:31:33.554Z,4.222222222222285
2023-10-24T05:32:38.658Z,4.222222222222285
2023-10-24T05:33:42.574Z,4.111111111111143
2023-10-24T05:34:46.720Z,4.111111111111143
2023-10-24T05:35:50.592Z,4.111111111111143
2023-10-24T05:36:54.558Z,4.111111111111143
2023-10-24T05:37:58.609Z,4.111111111111143
2023-10-24T05:39:02.585Z,4.111111111111143
2023-10-24T05:40:06.596Z,4.000000000000057
2023-10-24T05:41:10.558Z,4.000000000000057
2023-10-24T05:42:14.583Z,4.000000000000057
2023-10-24T05:43:19.155Z,4.000000000000057
2023-10-24T05:44:22.589Z,4.000000000000057
2023-10-24T05:45:26.612Z,4.000000000000057
2023-10-24T05:46:30.584Z,4.000000000000057
2023-10-24T05:47:32.416Z,4.000000000000057
2023-10-24T05:48:32.409Z,4.000000000000057
2023-10-24T05:49:32.506Z,4.000000000000057
2023-10-24T05:50:32.602Z,4.000000000000057
2023-10-24T05:51:32.392Z,4.000000000000057
2023-10-24T05:52:32.593Z,4.000000000000057
2023-10-24T05:53:32.523Z,4.000000000000057
2023-10-24T05:54:32.404Z,4.000000000000057
2023-10-24T05:55:32.458Z,4.000000000000057
2023-10-24T05:56:32.441Z,4.000000000000057
2023-10-24T05:57:32.421Z,4.000000000000057
2023-10-24T05:58:32.446Z,4.000000000000057
2023-10-24T05:59:32.420Z,4.000000000000057
2023-10-24T06:00:32.525Z,4.000000000000057
2023-10-24T06:01:32.566Z,4.000000000000057
2023-10-24T06:02:32.435Z,4.000000000000057
2023-10-24T06:03:32.466Z,4.000000000000057
2023-10-24T06:04:32.495Z,4.000000000000057
2023-10-24T06:05:32.453Z,4.000000000000057
2023-10-24T06:06:32.458Z,4.000000000000057
2023-10-24T06:07:32.447Z,4.000000000000057
2023-10-24T06:08:32.397Z,4.000000000000057
2023-10-24T06:09:32.430Z,3.888888888888914
2023-10-24T06:10:32.485Z,3.888888888888914
2023-10-24T06:11:32.417Z,3.888888888888914
2023-10-24T06:12:32.388Z,3.888888888888914
2023-10-24T06:13:32.453Z,3.888888888888914
2023-10-24T06:14:32.429Z,3.888888888888914
2023-10-24T06:15:32.470Z,4.000000000000057
2023-10-24T06:16:32.488Z,4.000000000000057
2023-10-24T06:17:32.456Z,4.000000000000057
2023-10-24T06:18:32.405Z,4.000000000000057
2023-10-24T06:19:32.489Z,4.000000000000057
2023-10-24T06:20:32.409Z,4.000000000000057
2023-10-24T06:21:32.464Z,4.000000000000057
2023-10-24T06:22:32.524Z,4.000000000000057
2023-10-24T06:23:32.486Z,4.000000000000057
2023-10-24T06:24:32.429Z,4.111111111111143
2023-10-24T06:25:32.459Z,4.111111111111143
2023-10-24T06:26:32.485Z,4.111111111111143
2023-10-24T06:27:32.424Z,4.111111111111143
2023-10-24T06:28:32.391Z,4.111111111111143
2023-10-24T06:29:32.450Z,4.111111111111143
2023-10-24T06:30:32.425Z,4.111111111111143
2023-10-24T06:31:32.507Z,4.111111111111143
2023-10-24T06:32:32.499Z,4.111111111111143
2023-10-24T06:33:32.401Z,4.111111111111143
2023-10-24T06:34:32.459Z,4.111111111111143
2023-10-24T06:35:32.406Z,4.111111111111143
2023-10-24T06:36:32.400Z,4.111111111111143
2023-10-24T06:37:32.461Z,4.111111111111143
2023-10-24T06:38:32.487Z,4.111111111111143
2023-10-24T06:39:39.671Z,4.111111111111143
2023-10-24T06:40:32.636Z,4.111111111111143
2023-10-24T06:41:32.464Z,4.111111111111143
2023-10-24T06:42:32.513Z,4.111111111111143
2023-10-24T06:43:32.461Z,4.111111111111143
2023-10-24T06:44:32.420Z,4.111111111111143
2023-10-24T06:45:34.901Z,4.111111111111143
2023-10-24T06:46:32.481Z,4.111111111111143
2023-10-24T06:47:32.426Z,4.111111111111143
2023-10-24T06:48:32.434Z,4.111111111111143
2023-10-24T06:49:32.426Z,4.111111111111143
2023-10-24T06:50:32.437Z,4.111111111111143
2023-10-24T06:51:32.445Z,4.111111111111143
2023-10-24T06:52:32.485Z,4.111111111111143
2023-10-24T06:53:32.406Z,4.222222222222285
2023-10-24T06:54:32.492Z,4.222222222222285
2023-10-24T06:55:32.633Z,4.222222222222285
2023-10-24T06:56:32.407Z,4.222222222222285
2023-10-24T06:57:32.394Z,4.222222222222285
2023-10-24T06:58:32.479Z,4.222222222222285
2023-10-24T06:59:32.477Z,4.222222222222285
2023-10-24T07:00:32.436Z,4.222222222222285
2023-10-24T07:01:34.857Z,4.277777777777828
2023-10-24T07:02:32.490Z,4.277777777777828
2023-10-24T07:03:32.642Z,4.277777777777828
2023-10-24T07:04:32.464Z,4.277777777777828
2023-10-24T07:05:32.460Z,4.277777777777828
2023-10-24T07:06:32.593Z,4.277777777777828
2023-10-24T07:07:32.515Z,4.277777777777828
2023-10-24T07:08:32.437Z,4.388888888888914
2023-10-24T07:09:32.445Z,4.388888888888914
2023-10-24T07:10:32.547Z,4.388888888888914
2023-10-24T07:11:32.464Z,4.388888888888914
2023-10-24T07:12:32.424Z,4.388888888888914
2023-10-24T07:13:33.434Z,4.388888888888914
2023-10-24T07:14:32.416Z,4.388888888888914
2023-10-24T07:15:32.435Z,4.500000000000057
2023-10-24T07:16:32.455Z,4.500000000000057
2023-10-24T07:17:32.441Z,4.500000000000057
2023-10-24T07:18:32.421Z,4.500000000000057
2023-10-24T07:19:32.431Z,4.500000000000057
2023-10-24T07:20:32.411Z,4.500000000000057
2023-10-24T07:21:32.433Z,4.500000000000057
2023-10-24T07:22:32.448Z,4.500000000000057
2023-10-24T07:23:33.576Z,4.500000000000057
2023-10-24T07:24:32.449Z,4.500000000000057
2023-10-24T07:25:32.600Z,4.500000000000057
2023-10-24T07:26:32.460Z,4.500000000000057
2023-10-24T07:27:32.393Z,4.500000000000057
2023-10-24T07:28:32.477Z,4.500000000000057
2023-10-24T07:29:32.417Z,4.500000000000057
2023-10-24T07:30:32.422Z,4.500000000000057
2023-10-24T07:31:32.580Z,4.500000000000057
2023-10-24T07:32:32.521Z,4.500000000000057
2023-10-24T07:33:32.429Z,4.500000000000057
2023-10-24T07:34:32.491Z,4.500000000000057
2023-10-24T07:35:32.408Z,4.500000000000057
2023-10-24T07:36:32.441Z,4.500000000000057
2023-10-24T07:37:32.426Z,4.500000000000057
2023-10-24T07:38:32.432Z,4.611111111111143
2023-10-24T07:39:32.388Z,4.611111111111143
2023-10-24T07:40:32.489Z,4.611111111111143
2023-10-24T07:41:32.432Z,4.611111111111143
2023-10-24T07:42:32.423Z,4.611111111111143
2023-10-24T07:43:32.442Z,4.611111111111143
2023-10-24T07:44:32.780Z,4.722222222222285
2023-10-24T07:45:32.410Z,4.722222222222285
2023-10-24T07:46:32.544Z,4.722222222222285
2023-10-24T07:47:32.494Z,4.722222222222285
2023-10-24T07:48:32.470Z,4.722222222222285
2023-10-24T07:49:32.461Z,4.722222222222285
2023-10-24T07:50:32.442Z,4.722222222222285
2023-10-24T07:51:32.481Z,4.722222222222285
2023-10-24T07:52:32.459Z,4.722222222222285
2023-10-24T07:53:32.925Z,4.722222222222285
2023-10-24T07:54:32.429Z,4.722222222222285
2023-10-24T07:55:32.430Z,4.722222222222285
2023-10-24T07:56:32.405Z,4.777777777777828
2023-10-24T07:57:32.451Z,4.777777777777828
2023-10-24T07:58:32.470Z,4.777777777777828
2023-10-24T07:59:32.414Z,4.777777777777828
2023-10-24T08:00:32.444Z,4.777777777777828
2023-10-24T08:01:32.503Z,4.777777777777828
2023-10-24T08:02:32.475Z,4.777777777777828
2023-10-24T08:03:32.464Z,4.722222222222285
2023-10-24T08:04:32.500Z,4.722222222222285
2023-10-24T08:05:32.492Z,4.722222222222285
2023-10-24T08:06:32.473Z,4.722222222222285
2023-10-24T08:07:32.436Z,4.777777777777828
2023-10-24T08:08:32.420Z,4.777777777777828
2023-10-24T08:09:32.399Z,4.777777777777828
2023-10-24T08:10:32.473Z,4.777777777777828
2023-10-24T08:11:32.422Z,4.777777777777828
2023-10-24T08:12:32.403Z,4.777777777777828
2023-10-24T08:13:33.152Z,4.777777777777828
2023-10-24T08:14:32.437Z,4.777777777777828
2023-10-24T08:15:32.457Z,4.777777777777828
2023-10-24T08:16:32.558Z,4.777777777777828
2023-10-24T08:17:32.547Z,4.777777777777828
2023-10-24T08:18:32.435Z,4.777777777777828
2023-10-24T08:19:32.470Z,4.722222222222285
2023-10-24T08:20:32.479Z,4.722222222222285
2023-10-24T08:21:32.432Z,4.722222222222285
2023-10-24T08:22:32.422Z,4.722222222222285
2023-10-24T08:23:32.582Z,4.722222222222285
2023-10-24T08:24:32.424Z,4.722222222222285
2023-10-24T08:25:32.458Z,4.722222222222285
2023-10-24T08:26:32.395Z,4.722222222222285
2023-10-24T08:27:32.450Z,4.722222222222285
2023-10-24T08:28:32.429Z,4.722222222222285
2023-10-24T08:29:32.385Z,4.777777777777828
2023-10-24T08:30:32.428Z,4.777777777777828
2023-10-24T08:31:37.673Z,4.722222222222285
2023-10-24T08:32:32.467Z,4.722222222222285
2023-10-24T08:33:32.446Z,4.722222222222285
2023-10-24T08:34:32.434Z,4.777777777777828
2023-10-24T08:35:32.469Z,4.777777777777828
2023-10-24T08:36:32.452Z,4.777777777777828
2023-10-24T08:37:32.417Z,4.777777777777828
2023-10-24T08:38:32.410Z,4.777777777777828
2023-10-24T08:39:32.421Z,4.888888888888914
2023-10-24T08:40:32.424Z,4.888888888888914
2023-10-24T08:41:32.388Z,4.888888888888914
2023-10-24T08:42:32.431Z,5.2222222222222285
2023-10-24T08:43:33.101Z,5.388888888888914
2023-10-24T08:44:32.435Z,5.611111111111143
2023-10-24T08:45:32.409Z,6.000000000000057
2023-10-24T08:46:32.482Z,6.277777777777828
2023-10-24T08:47:32.523Z,6.611111111111143
2023-10-24T08:48:32.424Z,6.722222222222285
2023-10-24T08:49:32.394Z,6.777777777777828
2023-10-24T08:50:32.443Z,6.888888888888914
2023-10-24T08:51:32.412Z,6.777777777777828
2023-10-24T08:52:32.436Z,6.777777777777828
2023-10-24T08:53:32.399Z,6.722222222222285
2023-10-24T08:54:32.419Z,6.722222222222285
2023-10-24T08:55:32.515Z,6.722222222222285
2023-10-24T08:56:32.438Z,6.777777777777828
2023-10-24T08:57:32.386Z,6.888888888888914
2023-10-24T08:58:32.513Z,6.888888888888914
2023-10-24T08:59:32.419Z,6.888888888888914
2023-10-24T09:00:32.383Z,7.000000000000057
2023-10-24T09:01:32.513Z,7.277777777777828
2023-10-24T09:02:32.438Z,7.500000000000057
2023-10-24T09:03:32.490Z,7.500000000000057
2023-10-24T09:04:32.425Z,7.500000000000057
2023-10-24T09:05:32.492Z,7.111111111111143
2023-10-24T09:06:32.395Z,7.000000000000057
2023-10-24T09:07:32.417Z,7.000000000000057
2023-10-24T09:08:32.428Z,7.222222222222285
2023-10-24T09:09:32.403Z,7.388888888888914
2023-10-24T09:10:32.407Z,7.500000000000057
2023-10-24T09:11:32.486Z,7.7222222222222285
2023-10-24T09:12:32.395Z,7.7222222222222285
2023-10-24T09:13:33.015Z,7.611111111111143
2023-10-24T09:14:45.003Z,7.222222222222285
2023-10-24T09:15:32.433Z,7.111111111111143
2023-10-24T09:16:32.474Z,7.111111111111143